Time;durP1;ratioP1;P1;durP2;ratioP2;P2;SDS_P1;SDS_P2;PMS_P1;PMS_P2;Temp;Humidity;BMP_temperature;BMP_pressure;BME280_temperature;BME280_humidity;BME280_pressure;Samples;Min_cycle;Max_cycle;Signal;HPM_P1;HPM_P2
2023/06/13 00:00:57;;;;;;;6.13;4.53;;;;;;;10.49;100.00;98341.84;2604852;28;20053;-86
2023/06/13 00:02:33;;;;;;;7.15;4.40;;;;;;;10.37;100.00;98344.78;2604975;28;20501;-86
2023/06/13 00:03:49;;;;;;;4.97;4.20;;;;;;;10.40;100.00;98342.09;2604053;28;20056;-85
2023/06/13 00:05:10;;;;;;;5.45;3.80;;;;;;;10.48;100.00;98337.53;2603816;28;20054;-86
2023/06/13 00:06:28;;;;;;;5.20;3.97;;;;;;;10.52;100.00;98340.88;2605738;28;20056;-86
2023/06/13 00:07:45;;;;;;;5.78;4.22;;;;;;;10.49;100.00;98338.38;2602610;28;20046;-86
2023/06/13 00:09:02;;;;;;;6.43;4.30;;;;;;;10.43;100.00;98331.56;2605380;28;21141;-86
2023/06/13 00:10:18;;;;;;;6.28;4.60;;;;;;;10.12;100.00;98342.88;2604272;28;20429;-86
2023/06/13 00:11:33;;;;;;;8.38;4.85;;;;;;;10.08;100.00;98336.84;2603798;28;20091;-86
2023/06/13 00:12:49;;;;;;;5.50;4.38;;;;;;;10.05;100.00;98339.56;2605588;28;20041;-86
2023/06/13 00:14:04;;;;;;;5.93;4.50;;;;;;;9.98;100.00;98338.00;2602738;28;20045;-86
2023/06/13 00:15:20;;;;;;;5.32;4.15;;;;;;;9.83;100.00;98334.06;2602547;28;20120;-86
2023/06/13 00:16:36;;;;;;;7.40;4.45;;;;;;;9.73;100.00;98338.69;2602752;28;20959;-86
2023/06/13 00:17:53;;;;;;;5.88;4.70;;;;;;;9.78;100.00;98336.78;2601729;28;20044;-86
2023/06/13 00:19:13;;;;;;;7.20;4.65;;;;;;;9.90;100.00;98330.34;2602952;28;20062;-87
2023/06/13 00:20:30;;;;;;;5.72;4.43;;;;;;;10.04;100.00;98322.16;2604527;28;20083;-86
2023/06/13 00:21:46;;;;;;;6.05;4.78;;;;;;;9.97;100.00;98328.44;2603377;28;20056;-86
2023/06/13 00:23:04;;;;;;;5.93;4.35;;;;;;;9.95;100.00;98327.63;2603181;28;20053;-88
2023/06/13 00:24:19;;;;;;;6.90;4.57;;;;;;;9.71;100.00;98330.88;2605385;28;20045;-87
2023/06/13 00:25:35;;;;;;;7.00;4.30;;;;;;;9.71;100.00;98330.88;2601168;28;20512;-90
2023/06/13 00:26:50;;;;;;;6.55;4.53;;;;;;;9.59;100.00;98331.19;2603318;28;20191;-87
2023/06/13 00:28:06;;;;;;;5.80;4.60;;;;;;;9.65;100.00;98333.66;2598770;28;20187;-86
2023/06/13 00:29:22;;;;;;;7.03;4.50;;;;;;;9.91;100.00;98326.84;2604745;28;20046;-86
2023/06/13 00:30:37;;;;;;;7.35;5.07;;;;;;;9.91;100.00;98332.06;2604736;28;20053;-86
2023/06/13 00:31:53;;;;;;;7.05;5.10;;;;;;;10.00;100.00;98329.22;2604340;28;20071;-86
2023/06/13 00:33:10;;;;;;;5.53;4.60;;;;;;;9.99;100.00;98330.13;2602684;28;20185;-86
2023/06/13 00:34:25;;;;;;;6.28;4.78;;;;;;;9.99;100.00;98327.50;2602724;28;20557;-87
2023/06/13 00:35:41;;;;;;;6.93;4.55;;;;;;;9.78;100.00;98333.31;2603107;28;20127;-87
2023/06/13 00:36:59;;;;;;;7.90;5.15;;;;;;;9.52;100.00;98334.88;2603920;28;20060;-87
2023/06/13 00:38:14;;;;;;;6.03;4.65;;;;;;;9.69;100.00;98327.44;2602216;28;20493;-86
2023/06/13 00:39:30;;;;;;;6.38;4.32;;;;;;;9.45;100.00;98335.00;2602887;28;20076;-87
2023/06/13 00:40:45;;;;;;;5.93;4.55;;;;;;;9.68;100.00;98336.19;2602451;28;20037;-86
2023/06/13 00:42:01;;;;;;;5.05;4.45;;;;;;;9.73;100.00;98334.28;2603015;28;20057;-87
2023/06/13 00:43:17;;;;;;;7.47;5.10;;;;;;;9.93;100.00;98325.06;2603297;28;20417;-86
2023/06/13 00:44:33;;;;;;;10.05;5.38;;;;;;;9.71;100.00;98330.88;2598906;28;20045;-87
2023/06/13 00:45:49;;;;;;;7.43;5.15;;;;;;;9.87;100.00;98320.00;2602604;28;20049;-87
2023/06/13 00:47:05;;;;;;;6.40;4.90;;;;;;;9.74;100.00;98325.53;2605214;28;20044;-87
2023/06/13 00:48:21;;;;;;;5.55;5.03;;;;;;;9.71;100.00;98327.41;2601761;28;20527;-86
2023/06/13 00:49:36;;;;;;;6.97;5.03;;;;;;;9.74;100.00;98325.53;2603297;28;20053;-86
2023/06/13 00:50:54;;;;;;;5.68;4.93;;;;;;;9.74;100.00;98325.53;2598971;28;20128;-87
2023/06/13 00:52:10;;;;;;;6.70;4.68;;;;;;;9.40;100.00;98336.00;2603090;28;20573;-87
2023/06/13 00:53:29;;;;;;;6.50;5.25;;;;;;;9.40;100.00;98339.50;2603964;28;20052;-87
2023/06/13 00:54:45;;;;;;;9.20;5.13;;;;;;;9.71;100.00;98335.25;2604044;28;20611;-87
2023/06/13 00:56:01;;;;;;;7.55;5.13;;;;;;;9.62;100.00;98331.09;2603517;28;20069;-86
2023/06/13 00:57:17;;;;;;;5.85;5.07;;;;;;;9.65;100.00;98331.03;2601753;28;20536;-87
2023/06/13 00:58:36;;;;;;;8.80;5.10;;;;;;;9.83;100.00;98328.81;2603504;28;20563;-86
2023/06/13 00:59:51;;;;;;;7.80;5.03;;;;;;;9.91;100.00;98334.69;2602971;28;20077;-86
2023/06/13 01:01:10;;;;;;;6.68;4.55;;;;;;;9.92;100.00;98331.19;2604936;28;20083;-86
2023/06/13 01:02:27;;;;;;;6.93;5.25;;;;;;;10.06;100.00;98329.94;2604759;28;20045;-86
2023/06/13 01:03:45;;;;;;;7.57;4.68;;;;;;;9.94;100.00;98325.91;2602470;28;20048;-87
2023/06/13 01:05:03;;;;;;;8.48;4.88;;;;;;;9.82;100.00;98327.13;2604542;28;20056;-87
2023/06/13 01:06:18;;;;;;;8.20;4.95;;;;;;;9.70;100.00;98326.53;2601979;28;20053;-87
2023/06/13 01:07:34;;;;;;;9.43;5.00;;;;;;;9.70;100.00;98328.28;2602541;28;20929;-86
2023/06/13 01:08:52;;;;;;;7.43;5.40;;;;;;;9.72;100.00;98324.72;2604285;28;20059;-87
2023/06/13 01:10:09;;;;;;;6.57;4.63;;;;;;;9.77;100.00;98327.22;2601727;28;20056;-86
2023/06/13 01:11:31;;;;;;;7.15;4.97;;;;;;;9.78;100.00;98328.94;2598630;28;20068;-86
2023/06/13 01:13:01;;;;;;;9.45;5.70;;;;;;;9.68;100.00;98336.19;2604193;28;20500;-86
2023/06/13 01:14:46;;;;;;;7.40;5.43;;;;;;;9.69;100.00;98332.66;2602355;28;20505;-86
2023/06/13 01:16:11;;;;;;;8.27;5.20;;;;;;;9.75;100.00;98329.88;2604151;28;20135;-86
2023/06/13 01:17:33;;;;;;;6.65;5.18;;;;;;;9.79;100.00;98332.44;2604415;28;20102;-86
2023/06/13 01:18:51;;;;;;;8.70;5.07;;;;;;;9.62;100.00;98331.09;2612929;28;20080;-87
2023/06/13 01:20:10;;;;;;;6.00;5.20;;;;;;;9.62;100.00;98333.72;2603693;28;20056;-87
2023/06/13 01:21:26;;;;;;;6.43;5.20;;;;;;;9.42;100.00;98332.47;2603114;28;20052;-86
2023/06/13 01:23:14;;;;;;;6.63;5.15;;;;;;;9.54;100.00;98335.69;2603609;28;20565;-86
2023/06/13 01:25:26;;;;;;;8.60;5.28;;;;;;;9.36;100.00;98339.59;2602356;28;20465;-87
2023/06/13 01:26:56;;;;;;;5.45;4.53;;;;;;;9.23;100.00;98337.28;2582804;28;20046;-87
2023/06/13 01:28:14;;;;;;;6.50;4.88;;;;;;;9.28;100.00;98345.03;2604007;28;20111;-86
2023/06/13 01:29:33;;;;;;;6.78;4.75;;;;;;;9.23;100.00;98337.28;2601920;28;20049;-86
2023/06/13 01:30:50;;;;;;;6.18;5.20;;;;;;;9.29;100.00;98329.31;2602759;28;20049;-86
2023/06/13 01:32:07;;;;;;;8.27;5.00;;;;;;;9.12;100.00;98331.47;2599089;28;20099;-87
2023/06/13 01:33:24;;;;;;;7.70;5.38;;;;;;;8.84;100.00;98332.97;2602390;28;20057;-86
2023/06/13 01:34:40;;;;;;;6.97;5.15;;;;;;;8.71;100.00;98337.59;2603940;28;20086;-86
2023/06/13 01:35:56;;;;;;;6.75;5.22;;;;;;;8.79;100.00;98340.03;2603493;28;20350;-86
2023/06/13 01:37:11;;;;;;;6.28;4.90;;;;;;;8.99;100.00;98336.13;2602668;28;20224;-86
2023/06/13 01:38:27;;;;;;;8.15;4.93;;;;;;;8.98;100.00;98330.03;2604147;28;20057;-86
2023/06/13 01:39:43;;;;;;;5.85;4.90;;;;;;;9.13;100.00;98339.28;2604601;28;20409;-86
2023/06/13 01:40:59;;;;;;;6.75;4.78;;;;;;;9.01;100.00;98340.44;2602881;28;20083;-86
2023/06/13 01:42:15;;;;;;;7.47;5.10;;;;;;;8.93;100.00;98338.84;2602612;28;20053;-86
2023/06/13 01:43:31;;;;;;;9.40;5.35;;;;;;;8.90;100.00;98334.59;2601515;28;20056;-86
2023/06/13 01:44:46;;;;;;;8.10;6.15;;;;;;;8.95;100.00;98327.50;2601914;28;20076;-86
2023/06/13 01:46:29;;;;;;;7.03;5.50;;;;;;;9.04;100.00;98326.41;2604762;28;20045;-86
2023/06/13 01:48:06;;;;;;;7.38;5.32;;;;;;;8.95;100.00;98331.88;2599059;28;20045;-87
2023/06/13 01:49:39;;;;;;;6.07;5.35;;;;;;;9.07;100.00;98334.19;2601893;28;20119;-85
2023/06/13 01:51:03;;;;;;;6.60;5.22;;;;;;;8.96;100.00;98333.59;2603424;28;20855;-85
2023/06/13 01:52:46;;;;;;;6.55;5.30;;;;;;;9.32;100.00;98333.59;2603379;28;20493;-86
2023/06/13 01:54:06;;;;;;;10.45;5.13;;;;;;;9.08;100.00;98329.81;2602108;28;20045;-86
2023/06/13 01:55:30;;;;;;;6.60;4.78;;;;;;;9.17;100.00;98324.38;2601560;28;20085;-85
2023/06/13 01:56:50;;;;;;;7.90;5.00;;;;;;;9.03;100.00;98328.19;2603684;28;20128;-85
2023/06/13 01:58:12;;;;;;;7.20;5.10;;;;;;;9.04;100.00;98324.69;2604265;28;20045;-86
2023/06/13 01:59:32;;;;;;;6.50;5.22;;;;;;;9.04;100.00;98329.03;2602542;28;20053;-86
2023/06/13 02:00:51;;;;;;;6.88;4.95;;;;;;;8.93;100.00;98331.91;2605095;28;20040;-86
2023/06/13 02:02:07;;;;;;;6.72;5.38;;;;;;;8.72;100.00;98328.88;2602073;28;20049;-86
2023/06/13 02:03:24;;;;;;;8.65;5.68;;;;;;;8.84;100.00;98329.50;2601957;28;20159;-86
2023/06/13 02:04:43;;;;;;;7.45;5.82;;;;;;;8.85;100.00;98323.38;2603581;28;20053;-86
2023/06/13 02:05:59;;;;;;;7.22;5.13;;;;;;;8.71;100.00;98321.09;2601948;28;20049;-86
2023/06/13 02:07:15;;;;;;;8.10;5.63;;;;;;;8.64;100.00;98322.09;2602080;28;20057;-87
2023/06/13 02:08:31;;;;;;;6.15;5.10;;;;;;;8.47;100.00;98318.97;2602902;28;20049;-87
2023/06/13 02:09:47;;;;;;;7.03;5.45;;;;;;;8.58;100.00;98326.56;2602729;28;20651;-87
2023/06/13 02:11:02;;;;;;;6.47;4.97;;;;;;;8.70;100.00;98328.03;2598264;28;20077;-87
2023/06/13 02:12:18;;;;;;;6.70;5.35;;;;;;;8.72;100.00;98318.44;2601433;28;20765;-87
2023/06/13 02:13:33;;;;;;;7.60;5.78;;;;;;;8.96;100.00;98318.75;2603557;28;20081;-86
2023/06/13 02:14:49;;;;;;;7.80;5.55;;;;;;;8.87;100.00;98317.22;2602648;28;20053;-86
2023/06/13 02:16:05;;;;;;;6.57;5.53;;;;;;;8.79;100.00;98318.31;2604907;28;20041;-85
2023/06/13 02:17:21;;;;;;;6.13;5.35;;;;;;;8.89;100.00;98312.81;2602722;28;20049;-85
2023/06/13 02:18:39;;;;;;;8.82;4.97;;;;;;;8.98;100.00;98316.97;2602676;28;20053;-86
2023/06/13 02:19:54;;;;;;;8.73;5.63;;;;;;;8.82;100.00;98316.50;2602541;28;20580;-86
2023/06/13 02:21:10;;;;;;;6.80;5.18;;;;;;;8.71;100.00;98311.50;2602597;28;20068;-86
2023/06/13 02:22:25;;;;;;;7.70;5.53;;;;;;;8.72;100.00;98312.38;2601685;28;20132;-86
2023/06/13 02:23:41;;;;;;;9.02;5.63;;;;;;;8.81;100.00;98316.50;2601752;28;20053;-86
2023/06/13 02:24:57;;;;;;;7.10;5.60;;;;;;;8.92;100.00;98319.75;2603680;28;20049;-86
2023/06/13 02:26:13;;;;;;;7.00;5.35;;;;;;;9.03;100.00;98319.47;2603108;28;20054;-86
2023/06/13 02:27:28;;;;;;;7.00;5.50;;;;;;;9.01;100.00;98310.84;2601302;28;20443;-86
2023/06/13 02:28:45;;;;;;;6.68;5.43;;;;;;;8.85;100.00;98316.41;2601776;28;20522;-86
2023/06/13 02:30:02;;;;;;;9.27;5.47;;;;;;;8.78;100.00;98321.81;2601827;28;20624;-86
2023/06/13 02:31:17;;;;;;;8.10;6.18;;;;;;;8.85;100.00;98319.03;2603062;28;20080;-86
2023/06/13 02:32:33;;;;;;;8.63;4.95;;;;;;;8.87;100.00;98314.63;2601912;28;20515;-86
2023/06/13 02:33:49;;;;;;;6.30;4.55;;;;;;;8.82;100.00;98313.88;2602487;28;20084;-86
2023/06/13 02:35:04;;;;;;;6.82;5.55;;;;;;;8.86;100.00;98315.50;2603316;28;20045;-86
2023/06/13 02:36:20;;;;;;;8.40;5.22;;;;;;;8.85;100.00;98312.94;2601884;28;20485;-86
2023/06/13 02:37:36;;;;;;;5.30;4.50;;;;;;;8.85;100.00;98315.53;2601805;28;20076;-87
2023/06/13 02:38:51;;;;;;;7.28;5.20;;;;;;;8.70;100.00;98314.16;2602191;28;20053;-86
2023/06/13 02:40:08;;;;;;;7.32;4.68;;;;;;;8.50;100.00;98307.59;2602637;28;20038;-86
2023/06/13 02:41:24;;;;;;;6.43;4.55;;;;;;;8.29;100.00;98314.09;2602205;28;20101;-85
2023/06/13 02:42:40;;;;;;;10.00;6.10;;;;;;;8.41;100.00;98320.84;2602718;28;20046;-85
2023/06/13 02:43:55;;;;;;;6.75;5.05;;;;;;;8.51;100.00;98314.53;2606040;28;20041;-87
2023/06/13 02:45:11;;;;;;;7.05;5.28;;;;;;;8.43;100.00;98319.88;2606432;28;20052;-86
2023/06/13 02:46:26;;;;;;;7.32;5.22;;;;;;;8.43;100.00;98316.44;2605858;28;20049;-86
2023/06/13 02:47:43;;;;;;;6.30;5.20;;;;;;;8.51;100.00;98316.31;2604461;28;20052;-86
2023/06/13 02:48:59;;;;;;;10.95;6.60;;;;;;;8.58;100.00;98321.34;2606257;28;20107;-86
2023/06/13 02:50:14;;;;;;;6.28;5.10;;;;;;;8.52;100.00;98318.03;2604469;28;20459;-86
2023/06/13 02:51:30;;;;;;;7.82;5.43;;;;;;;8.36;100.00;98320.06;2606421;28;20084;-86
2023/06/13 02:52:47;;;;;;;6.63;5.15;;;;;;;8.29;100.00;98320.19;2604213;28;20057;-86
2023/06/13 02:54:04;;;;;;;6.25;5.30;;;;;;;8.21;100.00;98319.47;2606254;28;20057;-86
2023/06/13 02:55:20;;;;;;;7.70;5.32;;;;;;;8.25;100.00;98328.97;2606054;28;20140;-87
2023/06/13 02:56:36;;;;;;;7.25;5.45;;;;;;;8.24;100.00;98319.44;2606079;28;20053;-87
2023/06/13 02:57:51;;;;;;;10.88;5.68;;;;;;;8.32;100.00;98317.53;2603867;28;20045;-87
2023/06/13 02:59:07;;;;;;;9.75;5.93;;;;;;;7.95;100.00;98322.63;2599631;28;20048;-86
2023/06/13 03:00:23;;;;;;;7.53;5.82;;;;;;;8.02;100.00;98309.44;2602995;28;20085;-87
2023/06/13 03:01:38;;;;;;;7.47;5.63;;;;;;;7.94;100.00;98324.34;2604723;28;20049;-87
2023/06/13 03:02:58;;;;;;;9.93;6.07;;;;;;;7.94;100.00;98319.13;2605834;28;20052;-87
2023/06/13 03:04:13;;;;;;;8.05;5.40;;;;;;;7.88;100.00;98320.13;2603507;28;20525;-87
2023/06/13 03:05:30;;;;;;;9.32;5.75;;;;;;;8.03;100.00;98323.31;2605629;28;20056;-86
2023/06/13 03:06:46;;;;;;;9.40;6.13;;;;;;;8.23;100.00;98317.69;2605056;28;20059;-86
2023/06/13 03:08:03;;;;;;;7.68;5.90;;;;;;;8.02;100.00;98316.38;2603189;28;20049;-87
2023/06/13 03:09:18;;;;;;;9.30;6.75;;;;;;;7.95;100.00;98314.81;2602787;28;20176;-87
2023/06/13 03:10:34;;;;;;;6.90;5.85;;;;;;;8.04;100.00;98306.81;2603327;28;20079;-87
2023/06/13 03:11:50;;;;;;;8.38;5.60;;;;;;;8.05;100.00;98313.75;2603479;28;20056;-87
2023/06/13 03:13:05;;;;;;;12.20;6.07;;;;;;;8.23;100.00;98315.09;2604226;28;20425;-87
2023/06/13 03:14:21;;;;;;;8.57;6.60;;;;;;;8.29;100.00;98311.50;2603308;28;20044;-87
2023/06/13 03:15:37;;;;;;;7.60;5.68;;;;;;;8.33;100.00;98316.63;2603693;28;20057;-87
2023/06/13 03:16:52;;;;;;;6.97;5.68;;;;;;;8.42;100.00;98312.97;2603700;28;20041;-87
2023/06/13 03:18:08;;;;;;;7.00;5.47;;;;;;;8.46;100.00;98316.38;2605053;28;20041;-87
2023/06/13 03:19:25;;;;;;;7.35;5.78;;;;;;;8.35;100.00;98324.44;2603912;28;20131;-87
2023/06/13 03:20:45;;;;;;;7.55;5.88;;;;;;;8.50;100.00;98315.44;2605135;28;20056;-87
2023/06/13 03:22:01;;;;;;;7.15;5.50;;;;;;;8.60;100.00;98316.97;2604790;28;20049;-86
2023/06/13 03:23:17;;;;;;;8.23;5.70;;;;;;;8.66;100.00;98315.09;2605294;28;20917;-87
2023/06/13 03:24:35;;;;;;;10.38;6.05;;;;;;;8.68;100.00;98311.56;2605709;28;20111;-87
2023/06/13 03:25:51;;;;;;;5.93;4.72;;;;;;;8.55;100.00;98318.81;2603724;28;20705;-87
2023/06/13 03:27:07;;;;;;;8.38;5.22;;;;;;;8.64;100.00;98317.75;2604346;28;20054;-87
2023/06/13 03:28:23;;;;;;;7.78;5.82;;;;;;;8.71;100.00;98315.88;2602396;28;20148;-86
2023/06/13 03:29:42;;;;;;;8.32;5.78;;;;;;;8.61;100.00;98313.47;2603386;28;20052;-87
2023/06/13 03:31:00;;;;;;;7.88;5.35;;;;;;;8.69;100.00;98312.44;2605453;28;21111;-87
2023/06/13 03:32:15;;;;;;;5.93;5.22;;;;;;;8.45;100.00;98314.66;2605272;28;20481;-87
2023/06/13 03:33:31;;;;;;;6.90;5.20;;;;;;;8.53;100.00;98320.63;2604973;28;20033;-86
2023/06/13 03:34:47;;;;;;;7.50;5.43;;;;;;;8.64;100.00;98322.09;2604201;28;20041;-87
2023/06/13 03:36:03;;;;;;;7.10;5.60;;;;;;;8.65;100.00;98318.59;2606271;28;20041;-86
2023/06/13 03:37:19;;;;;;;7.13;5.20;;;;;;;8.64;100.00;98322.97;2604516;28;20045;-87
2023/06/13 03:38:35;;;;;;;8.68;5.53;;;;;;;8.41;100.00;98315.63;2605892;28;20049;-87
2023/06/13 03:39:50;;;;;;;6.53;5.15;;;;;;;8.33;100.00;98316.63;2604303;28;20053;-87
2023/06/13 03:41:06;;;;;;;7.10;5.32;;;;;;;8.31;100.00;98322.75;2604624;28;20049;-86
2023/06/13 03:42:22;;;;;;;6.47;5.15;;;;;;;8.19;100.00;98318.66;2604307;28;20126;-86
2023/06/13 03:43:37;;;;;;;7.32;5.55;;;;;;;8.45;100.00;98325.97;2605756;28;20057;-85
2023/06/13 03:44:53;;;;;;;8.35;5.53;;;;;;;8.32;100.00;98325.34;2605265;28;20046;-86
2023/06/13 03:46:08;;;;;;;7.38;5.38;;;;;;;8.37;100.00;98322.66;2600596;28;20294;-85
2023/06/13 03:47:24;;;;;;;5.95;5.22;;;;;;;8.45;100.00;98327.69;2605245;28;20052;-86
2023/06/13 03:48:40;;;;;;;9.85;6.45;;;;;;;8.63;100.00;98321.25;2602808;28;20064;-85
2023/06/13 03:49:56;;;;;;;7.47;5.72;;;;;;;8.66;100.00;98328.16;2604990;28;20098;-86
2023/06/13 03:51:11;;;;;;;8.23;5.65;;;;;;;8.65;100.00;98327.31;2603951;28;20457;-86
2023/06/13 03:52:27;;;;;;;8.63;5.85;;;;;;;8.73;100.00;98327.13;2604033;28;20055;-86
2023/06/13 03:53:43;;;;;;;7.72;5.75;;;;;;;8.71;100.00;98324.53;2604284;28;20060;-85
2023/06/13 03:54:58;;;;;;;7.97;5.60;;;;;;;8.78;100.00;98327.03;2602339;28;20568;-86
2023/06/13 03:56:14;;;;;;;9.25;5.68;;;;;;;8.87;100.00;98329.41;2604019;28;20045;-86
2023/06/13 03:57:31;;;;;;;6.88;5.80;;;;;;;8.88;100.00;98329.38;2614405;28;20134;-85
2023/06/13 03:58:47;;;;;;;6.80;5.30;;;;;;;8.73;100.00;98330.63;2609870;28;20055;-85
2023/06/13 04:00:05;;;;;;;8.73;5.97;;;;;;;8.76;100.00;98329.66;2603334;28;20053;-86
2023/06/13 04:01:20;;;;;;;6.63;5.80;;;;;;;8.72;100.00;98328.03;2603779;28;20038;-87
2023/06/13 04:02:36;;;;;;;7.40;5.95;;;;;;;8.90;100.00;98329.38;2605068;28;20045;-86
2023/06/13 04:03:52;;;;;;;8.85;5.60;;;;;;;8.79;100.00;98334.81;2602513;28;20048;-86
2023/06/13 04:05:08;;;;;;;7.45;5.95;;;;;;;8.96;100.00;98330.97;2605828;28;20045;-86
2023/06/13 04:06:23;;;;;;;7.57;5.30;;;;;;;8.85;100.00;98328.59;2605552;28;20079;-88
2023/06/13 04:07:40;;;;;;;8.35;5.25;;;;;;;8.90;100.00;98324.16;2603988;28;20060;-85
2023/06/13 04:08:57;;;;;;;6.97;5.45;;;;;;;8.94;100.00;98325.78;2605395;28;20053;-86
2023/06/13 04:10:12;;;;;;;7.30;6.07;;;;;;;9.04;100.00;98324.69;2603206;28;20046;-86
2023/06/13 04:11:29;;;;;;;8.77;6.25;;;;;;;9.01;100.00;98323.88;2604032;28;20412;-86
2023/06/13 04:12:45;;;;;;;9.23;6.47;;;;;;;9.00;100.00;98317.78;2605036;28;20041;-87
2023/06/13 04:14:01;;;;;;;8.85;6.03;;;;;;;8.94;100.00;98323.16;2604722;28;20052;-88
2023/06/13 04:15:16;;;;;;;10.07;7.10;;;;;;;8.98;100.00;98321.34;2604747;28;20901;-88
2023/06/13 04:16:32;;;;;;;8.43;6.28;;;;;;;9.07;100.00;98313.28;2603546;28;20107;-88
2023/06/13 04:17:52;;;;;;;9.88;6.35;;;;;;;9.03;100.00;98317.75;2603684;28;20045;-88
2023/06/13 04:19:08;;;;;;;8.45;6.18;;;;;;;9.15;100.00;98316.56;2603517;28;21072;-90
2023/06/13 04:20:24;;;;;;;9.27;6.40;;;;;;;9.18;100.00;98313.88;2606449;28;20057;-88
2023/06/13 04:21:39;;;;;;;9.77;6.20;;;;;;;9.02;100.00;98318.63;2603453;28;20452;-90
2023/06/13 04:22:55;;;;;;;9.18;6.20;;;;;;;8.98;100.00;98318.75;2604177;28;20726;-89
2023/06/13 04:24:10;;;;;;;8.52;6.25;;;;;;;9.21;100.00;98315.56;2605666;28;20049;-88
2023/06/13 04:25:26;;;;;;;6.85;5.47;;;;;;;8.67;100.00;98319.44;2606055;28;20102;-87
2023/06/13 04:26:45;;;;;;;7.45;5.72;;;;;;;8.96;100.00;98310.09;2604207;28;20049;-88
2023/06/13 04:28:00;;;;;;;7.25;6.03;;;;;;;9.06;100.00;98313.34;2605954;28;20124;-87
2023/06/13 04:29:17;;;;;;;8.40;6.32;;;;;;;9.30;100.00;98319.72;2605714;28;20508;-86
2023/06/13 04:30:32;;;;;;;7.68;6.05;;;;;;;9.19;100.00;98319.97;2602237;28;20045;-86
2023/06/13 04:31:50;;;;;;;7.55;5.97;;;;;;;8.93;100.00;98316.22;2603797;28;20041;-87
2023/06/13 04:33:13;;;;;;;7.13;5.50;;;;;;;8.95;100.00;98316.22;2603684;28;20048;-87
2023/06/13 04:34:29;;;;;;;9.85;6.00;;;;;;;9.15;100.00;98319.19;2602303;28;20056;-87
2023/06/13 04:35:46;;;;;;;8.27;6.25;;;;;;;9.10;100.00;98322.81;2603539;28;20096;-87
2023/06/13 04:37:03;;;;;;;8.95;6.47;;;;;;;9.12;100.00;98314.06;2603874;28;20057;-87
2023/06/13 04:38:22;;;;;;;9.43;6.53;;;;;;;9.29;100.00;98323.22;2603115;28;20041;-86
2023/06/13 04:39:38;;;;;;;7.68;6.03;;;;;;;9.23;100.00;98319.00;2603448;28;20052;-86
2023/06/13 04:40:54;;;;;;;8.48;6.55;;;;;;;9.41;100.00;98317.69;2604359;28;20044;-86
2023/06/13 04:42:14;;;;;;;8.85;6.65;;;;;;;9.46;100.00;98317.59;2604060;28;20397;-86
2023/06/13 04:43:33;;;;;;;9.13;6.43;;;;;;;9.49;100.00;98314.00;2605341;28;20072;-86
2023/06/13 04:44:52;;;;;;;11.30;6.88;;;;;;;9.59;100.00;98321.59;2602991;28;20049;-86
2023/06/13 04:46:08;;;;;;;9.60;6.65;;;;;;;9.68;100.00;98317.00;2603728;28;20045;-87
2023/06/13 04:47:27;;;;;;;8.82;6.72;;;;;;;9.64;100.00;98320.59;2603747;28;20377;-86
2023/06/13 04:48:43;;;;;;;8.38;6.20;;;;;;;9.60;100.00;98319.81;2602008;28;20049;-86
2023/06/13 04:49:59;;;;;;;8.30;6.05;;;;;;;9.76;100.00;98317.66;2596376;28;20057;-86
2023/06/13 04:51:15;;;;;;;7.82;6.50;;;;;;;9.84;100.00;98318.31;2602648;28;20045;-86
2023/06/13 04:52:33;;;;;;;8.63;6.40;;;;;;;9.86;100.00;98315.66;2603297;28;20390;-86
2023/06/13 04:53:52;;;;;;;8.27;6.18;;;;;;;9.98;100.00;98312.72;2602079;28;20501;-86
2023/06/13 04:55:08;;;;;;;8.25;5.90;;;;;;;10.01;100.00;98315.25;2602402;28;20037;-86
2023/06/13 04:56:27;;;;;;;7.57;6.00;;;;;;;10.10;100.00;98305.44;2602191;28;20958;-86
2023/06/13 04:57:43;;;;;;;7.63;5.93;;;;;;;10.22;100.00;98306.81;2604376;28;20588;-86
2023/06/13 04:58:59;;;;;;;11.38;7.32;;;;;;;10.29;100.00;98301.38;2601967;28;20049;-86
2023/06/13 05:00:15;;;;;;;8.50;6.60;;;;;;;10.15;100.00;98309.63;2603305;28;20059;-87
2023/06/13 05:01:32;;;;;;;8.60;6.25;;;;;;;10.09;100.00;98304.56;2602681;28;20044;-85
2023/06/13 05:02:48;;;;;;;7.03;5.97;;;;;;;10.18;100.00;98306.06;2602896;28;20482;-86
2023/06/13 05:04:06;;;;;;;8.27;6.38;;;;;;;10.37;100.00;98302.91;2602787;28;20097;-85
2023/06/13 05:05:22;;;;;;;8.93;6.25;;;;;;;10.51;100.00;98305.16;2602764;28;20076;-87
2023/06/13 05:06:38;;;;;;;7.95;6.95;;;;;;;10.57;100.00;98307.59;2601481;28;20041;-87
2023/06/13 05:07:55;;;;;;;10.00;6.38;;;;;;;10.59;100.00;98309.25;2604099;28;20053;-86
2023/06/13 05:09:14;;;;;;;8.85;6.85;;;;;;;10.75;100.00;98306.16;2603781;28;20052;-86
2023/06/13 05:10:29;;;;;;;8.93;6.82;;;;;;;10.69;100.00;98308.97;2602523;28;20075;-87
2023/06/13 05:11:45;;;;;;;6.57;5.57;;;;;;;10.47;100.00;98306.16;2603390;28;20040;-86
2023/06/13 05:13:01;;;;;;;7.68;6.40;;;;;;;10.74;100.00;98310.56;2603225;28;20123;-86
2023/06/13 05:14:16;;;;;;;9.23;6.30;;;;;;;10.83;100.00;98298.94;2602061;28;20045;-85
2023/06/13 05:15:32;;;;;;;8.32;6.35;;;;;;;10.83;100.00;98308.56;2602875;28;20044;-86
2023/06/13 05:16:48;;;;;;;7.60;5.97;;;;;;;10.92;100.00;98310.03;2602699;28;20057;-86
2023/06/13 05:18:06;;;;;;;7.90;6.55;;;;;;;11.00;100.00;98313.25;2602319;28;20587;-85
2023/06/13 05:19:23;;;;;;;8.30;6.25;;;;;;;10.92;100.00;98310.03;2601893;28;20064;-85
2023/06/13 05:20:43;;;;;;;8.25;5.80;;;;;;;11.01;100.00;98304.47;2604848;28;20065;-86
2023/06/13 05:22:03;;;;;;;7.20;6.05;;;;;;;11.28;100.00;98309.72;2603208;28;20504;-86
2023/06/13 05:23:20;;;;;;;8.35;5.93;;;;;;;11.15;100.00;98312.75;2603184;28;20143;-86
2023/06/13 05:24:36;;;;;;;9.13;6.55;;;;;;;11.03;100.00;98305.28;2602392;28;20048;-86
2023/06/13 05:25:52;;;;;;;7.82;6.15;;;;;;;11.32;100.00;98313.13;2603291;28;20067;-86
2023/06/13 05:27:07;;;;;;;8.95;6.30;;;;;;;11.49;100.00;98304.69;2603597;28;20110;-86
2023/06/13 05:28:23;;;;;;;8.40;6.50;;;;;;;11.53;100.00;98306.28;2603326;28;20164;-88
2023/06/13 05:29:39;;;;;;;9.32;5.88;;;;;;;11.26;100.00;98304.56;2602330;28;20069;-88
2023/06/13 05:30:56;;;;;;;8.32;6.45;;;;;;;11.51;100.00;98298.47;2603885;28;20067;-88
2023/06/13 05:32:12;;;;;;;7.70;6.00;;;;;;;11.63;100.00;98305.09;2604172;28;20080;-88
2023/06/13 05:33:28;;;;;;;13.35;6.70;;;;;;;11.72;100.00;98302.13;2602504;28;20456;-88
2023/06/13 05:34:43;;;;;;;9.88;6.22;;;;;;;11.43;100.00;98298.72;2604224;28;20068;-88
2023/06/13 05:36:00;;;;;;;7.65;5.97;;;;;;;11.51;100.00;98298.47;2602790;28;20099;-87
2023/06/13 05:37:16;;;;;;;7.70;5.80;;;;;;;11.64;100.00;98293.69;2601741;28;20083;-87
2023/06/13 05:38:32;;;;;;;7.75;6.18;;;;;;;12.01;100.00;98291.50;2611819;28;20052;-87
2023/06/13 05:39:47;;;;;;;7.95;6.28;;;;;;;12.00;100.00;98295.03;2607834;28;20132;-87
2023/06/13 05:41:03;;;;;;;7.55;5.85;;;;;;;12.11;100.00;98292.06;2602455;28;20049;-88
2023/06/13 05:42:19;;;;;;;7.88;6.40;;;;;;;12.11;100.00;98287.69;2603263;28;20091;-88
2023/06/13 05:43:34;;;;;;;8.05;5.90;;;;;;;12.16;100.00;98290.13;2603017;28;20136;-86
2023/06/13 05:44:50;;;;;;;9.25;5.95;;;;;;;12.28;100.00;98294.91;2602487;28;20528;-87
2023/06/13 05:46:05;;;;;;;9.25;5.72;;;;;;;12.48;100.00;98287.19;2601619;28;20078;-86
2023/06/13 05:47:21;;;;;;;7.57;6.13;;;;;;;12.33;100.00;98284.25;2597994;28;20054;-87
2023/06/13 05:48:36;;;;;;;8.25;5.97;;;;;;;12.60;100.00;98281.47;2601178;28;20742;-86
2023/06/13 05:49:52;;;;;;;8.45;5.70;;;;;;;12.41;100.00;98287.44;2604778;28;20471;-88
2023/06/13 05:51:08;;;;;;;6.95;5.55;;;;;;;12.74;100.00;98291.44;2603119;28;20046;-87
2023/06/13 05:52:24;;;;;;;9.18;5.70;;;;;;;12.84;100.00;98284.91;2603601;28;20049;-88
2023/06/13 05:53:39;;;;;;;7.47;5.78;;;;;;;12.74;100.00;98278.31;2603533;28;20045;-84
2023/06/13 05:54:55;;;;;;;6.80;5.82;;;;;;;12.82;100.00;98278.00;2602903;28;20638;-83
2023/06/13 05:56:10;;;;;;;7.60;6.22;;;;;;;12.97;100.00;98272.13;2603542;28;20053;-84
2023/06/13 05:57:40;;;;;;;7.32;5.55;;;;;;;13.02;100.00;98273.72;2604195;28;20049;-84
2023/06/13 05:58:56;;;;;;;7.75;5.60;;;;;;;13.17;100.00;98270.44;2603271;28;20045;-84
2023/06/13 06:00:13;;;;;;;9.52;5.82;;;;;;;13.26;100.00;98259.56;2602578;28;20057;-84
2023/06/13 06:01:30;;;;;;;8.38;5.68;;;;;;;13.30;100.00;98262.06;2602031;28;20053;-84
2023/06/13 06:02:47;;;;;;;8.10;5.65;;;;;;;13.35;100.00;98270.63;2603989;28;20190;-84
2023/06/13 06:04:03;;;;;;;9.63;5.43;;;;;;;13.52;100.00;98268.16;2602065;28;20054;-84